sensor_id;sensor_type;location;lat;lon;timestamp;P1;durP1;ratioP1;P2;durP2;ratioP2
77518;SDS011;66629;47.346;19.038;2023-04-01T00:01:22;4.20;;;2.65;;
77518;SDS011;66629;47.346;19.038;2023-04-01T00:03:47;4.45;;;2.47;;
77518;SDS011;66629;47.346;19.038;2023-04-01T00:06:13;6.07;;;2.65;;
77518;SDS011;66629;47.346;19.038;2023-04-01T00:08:40;3.85;;;2.70;;
77518;SDS011;66629;47.346;19.038;2023-04-01T00:11:06;5.32;;;2.92;;
77518;SDS011;66629;47.346;19.038;2023-04-01T00:13:31;4.65;;;2.75;;
77518;SDS011;66629;47.346;19.038;2023-04-01T00:15:57;3.92;;;2.75;;
77518;SDS011;66629;47.346;19.038;2023-04-01T00:18:23;5.78;;;3.08;;
77518;SDS011;66629;47.346;19.038;2023-04-01T00:20:49;4.57;;;3.10;;
77518;SDS011;66629;47.346;19.038;2023-04-01T00:23:15;4.18;;;3.08;;
77518;SDS011;66629;47.346;19.038;2023-04-01T00:25:41;5.35;;;2.88;;
77518;SDS011;66629;47.346;19.038;2023-04-01T00:28:07;4.30;;;3.10;;
77518;SDS011;66629;47.346;19.038;2023-04-01T00:30:32;3.85;;;2.80;;
77518;SDS011;66629;47.346;19.038;2023-04-01T00:32:58;4.72;;;3.53;;
77518;SDS011;66629;47.346;19.038;2023-04-01T00:35:23;6.00;;;3.10;;
77518;SDS011;66629;47.346;19.038;2023-04-01T00:37:49;4.65;;;3.08;;
77518;SDS011;66629;47.346;19.038;2023-04-01T00:40:23;4.22;;;3.00;;
77518;SDS011;66629;47.346;19.038;2023-04-01T00:42:54;4.25;;;2.97;;
77518;SDS011;66629;47.346;19.038;2023-04-01T00:45:29;4.50;;;2.92;;
77518;SDS011;66629;47.346;19.038;2023-04-01T00:48:04;4.38;;;3.15;;
77518;SDS011;66629;47.346;19.038;2023-04-01T00:50:42;4.88;;;3.30;;
77518;SDS011;66629;47.346;19.038;2023-04-01T00:53:12;4.55;;;3.10;;
77518;SDS011;66629;47.346;19.038;2023-04-01T00:55:40;3.90;;;2.90;;
77518;SDS011;66629;47.346;19.038;2023-04-01T00:58:11;4.63;;;3.40;;
77518;SDS011;66629;47.346;19.038;2023-04-01T01:00:40;3.97;;;3.05;;
77518;SDS011;66629;47.346;19.038;2023-04-01T01:03:07;4.80;;;3.00;;
77518;SDS011;66629;47.346;19.038;2023-04-01T01:11:05;7.07;;;3.90;;
77518;SDS011;66629;47.346;19.038;2023-04-01T01:13:43;5.30;;;3.05;;
77518;SDS011;66629;47.346;19.038;2023-04-01T01:18:53;4.93;;;3.45;;
77518;SDS011;66629;47.346;19.038;2023-04-01T01:27:07;4.53;;;3.70;;
77518;SDS011;66629;47.346;19.038;2023-04-01T01:29:43;4.00;;;3.22;;
77518;SDS011;66629;47.346;19.038;2023-04-01T01:35:16;4.97;;;3.83;;
77518;SDS011;66629;47.346;19.038;2023-04-01T01:37:45;5.82;;;4.03;;
77518;SDS011;66629;47.346;19.038;2023-04-01T01:40:13;5.53;;;3.72;;
77518;SDS011;66629;47.346;19.038;2023-04-01T01:42:42;5.82;;;4.07;;
77518;SDS011;66629;47.346;19.038;2023-04-01T01:45:11;6.30;;;4.28;;
77518;SDS011;66629;47.346;19.038;2023-04-01T01:47:39;4.75;;;3.65;;
77518;SDS011;66629;47.346;19.038;2023-04-01T01:50:06;6.82;;;4.28;;
77518;SDS011;66629;47.346;19.038;2023-04-01T01:52:33;5.53;;;4.13;;
77518;SDS011;66629;47.346;19.038;2023-04-01T01:54:58;5.85;;;4.63;;
77518;SDS011;66629;47.346;19.038;2023-04-01T01:57:28;6.32;;;4.28;;
77518;SDS011;66629;47.346;19.038;2023-04-01T02:00:03;7.60;;;4.60;;
77518;SDS011;66629;47.346;19.038;2023-04-01T02:02:41;5.35;;;4.20;;
77518;SDS011;66629;47.346;19.038;2023-04-01T02:05:10;6.82;;;4.75;;
77518;SDS011;66629;47.346;19.038;2023-04-01T02:07:40;5.22;;;4.40;;
77518;SDS011;66629;47.346;19.038;2023-04-01T02:10:09;7.53;;;4.60;;
77518;SDS011;66629;47.346;19.038;2023-04-01T02:12:35;5.95;;;4.60;;
77518;SDS011;66629;47.346;19.038;2023-04-01T02:15:05;6.13;;;4.18;;
77518;SDS011;66629;47.346;19.038;2023-04-01T02:17:34;8.00;;;4.57;;
77518;SDS011;66629;47.346;19.038;2023-04-01T02:20:04;7.30;;;4.93;;
77518;SDS011;66629;47.346;19.038;2023-04-01T02:22:36;5.78;;;4.18;;
77518;SDS011;66629;47.346;19.038;2023-04-01T02:25:13;9.13;;;4.80;;
77518;SDS011;66629;47.346;19.038;2023-04-01T02:27:42;6.78;;;4.57;;
77518;SDS011;66629;47.346;19.038;2023-04-01T02:30:10;7.30;;;4.93;;
77518;SDS011;66629;47.346;19.038;2023-04-01T02:32:37;5.72;;;3.85;;
77518;SDS011;66629;47.346;19.038;2023-04-01T02:35:08;5.63;;;4.15;;
77518;SDS011;66629;47.346;19.038;2023-04-01T02:37:36;6.32;;;4.65;;
77518;SDS011;66629;47.346;19.038;2023-04-01T02:40:03;6.68;;;4.85;;
77518;SDS011;66629;47.346;19.038;2023-04-01T02:42:32;6.88;;;5.38;;
77518;SDS011;66629;47.346;19.038;2023-04-01T02:44:58;6.57;;;5.10;;
77518;SDS011;66629;47.346;19.038;2023-04-01T02:47:23;6.40;;;4.45;;
77518;SDS011;66629;47.346;19.038;2023-04-01T02:49:49;7.05;;;4.80;;
77518;SDS011;66629;47.346;19.038;2023-04-01T02:52:14;6.75;;;4.65;;
77518;SDS011;66629;47.346;19.038;2023-04-01T02:54:40;6.60;;;4.60;;
77518;SDS011;66629;47.346;19.038;2023-04-01T02:57:05;6.85;;;4.40;;
77518;SDS011;66629;47.346;19.038;2023-04-01T02:59:31;6.03;;;4.38;;
77518;SDS011;66629;47.346;19.038;2023-04-01T03:01:56;6.13;;;4.40;;
77518;SDS011;66629;47.346;19.038;2023-04-01T03:04:22;5.60;;;4.13;;
77518;SDS011;66629;47.346;19.038;2023-04-01T03:06:47;6.35;;;4.38;;
77518;SDS011;66629;47.346;19.038;2023-04-01T03:09:13;7.35;;;4.25;;
77518;SDS011;66629;47.346;19.038;2023-04-01T03:11:39;7.32;;;4.43;;
77518;SDS011;66629;47.346;19.038;2023-04-01T03:14:05;5.75;;;4.20;;
77518;SDS011;66629;47.346;19.038;2023-04-01T03:16:32;6.53;;;4.07;;
77518;SDS011;66629;47.346;19.038;2023-04-01T03:18:57;5.03;;;3.80;;
77518;SDS011;66629;47.346;19.038;2023-04-01T03:21:25;9.45;;;4.55;;
77518;SDS011;66629;47.346;19.038;2023-04-01T03:23:51;6.22;;;3.95;;
77518;SDS011;66629;47.346;19.038;2023-04-01T03:26:17;5.72;;;4.57;;
77518;SDS011;66629;47.346;19.038;2023-04-01T03:28:43;8.23;;;5.03;;
77518;SDS011;66629;47.346;19.038;2023-04-01T03:31:09;7.72;;;5.35;;
77518;SDS011;66629;47.346;19.038;2023-04-01T03:33:35;8.43;;;5.15;;
77518;SDS011;66629;47.346;19.038;2023-04-01T03:36:00;7.15;;;5.00;;
77518;SDS011;66629;47.346;19.038;2023-04-01T03:38:26;6.85;;;4.88;;
77518;SDS011;66629;47.346;19.038;2023-04-01T03:40:51;5.85;;;4.60;;
77518;SDS011;66629;47.346;19.038;2023-04-01T03:43:17;7.13;;;4.40;;
77518;SDS011;66629;47.346;19.038;2023-04-01T03:45:43;6.07;;;4.18;;
77518;SDS011;66629;47.346;19.038;2023-04-01T03:48:12;6.47;;;4.50;;
77518;SDS011;66629;47.346;19.038;2023-04-01T03:50:39;6.90;;;4.50;;
77518;SDS011;66629;47.346;19.038;2023-04-01T03:53:05;7.15;;;5.03;;
77518;SDS011;66629;47.346;19.038;2023-04-01T03:55:30;6.38;;;4.78;;
77518;SDS011;66629;47.346;19.038;2023-04-01T03:57:56;11.32;;;6.30;;
77518;SDS011;66629;47.346;19.038;2023-04-01T04:00:22;12.60;;;7.30;;
77518;SDS011;66629;47.346;19.038;2023-04-01T04:02:47;10.95;;;7.47;;
77518;SDS011;66629;47.346;19.038;2023-04-01T04:05:12;11.32;;;6.80;;
77518;SDS011;66629;47.346;19.038;2023-04-01T04:07:39;10.82;;;6.88;;
77518;SDS011;66629;47.346;19.038;2023-04-01T04:10:04;9.95;;;6.22;;
77518;SDS011;66629;47.346;19.038;2023-04-01T04:12:30;10.90;;;6.60;;
77518;SDS011;66629;47.346;19.038;2023-04-01T04:14:56;7.97;;;5.75;;
77518;SDS011;66629;47.346;19.038;2023-04-01T04:17:21;9.65;;;5.68;;
77518;SDS011;66629;47.346;19.038;2023-04-01T04:19:47;7.45;;;5.43;;
77518;SDS011;66629;47.346;19.038;2023-04-01T04:22:12;7.28;;;5.05;;
77518;SDS011;66629;47.346;19.038;2023-04-01T04:24:38;7.47;;;4.82;;
77518;SDS011;66629;47.346;19.038;2023-04-01T04:27:03;6.93;;;5.40;;
77518;SDS011;66629;47.346;19.038;2023-04-01T04:29:29;8.02;;;4.97;;
77518;SDS011;66629;47.346;19.038;2023-04-01T04:31:55;5.82;;;4.43;;
77518;SDS011;66629;47.346;19.038;2023-04-01T04:34:20;7.13;;;4.55;;
77518;SDS011;66629;47.346;19.038;2023-04-01T04:36:47;6.82;;;4.90;;
77518;SDS011;66629;47.346;19.038;2023-04-01T04:39:13;6.30;;;4.30;;
77518;SDS011;66629;47.346;19.038;2023-04-01T04:41:38;7.15;;;4.35;;
77518;SDS011;66629;47.346;19.038;2023-04-01T04:44:04;5.60;;;4.18;;
77518;SDS011;66629;47.346;19.038;2023-04-01T04:46:30;7.10;;;4.18;;
77518;SDS011;66629;47.346;19.038;2023-04-01T04:48:56;7.00;;;3.83;;
77518;SDS011;66629;47.346;19.038;2023-04-01T04:51:22;9.82;;;3.90;;
77518;SDS011;66629;47.346;19.038;2023-04-01T04:53:48;4.93;;;3.60;;
77518;SDS011;66629;47.346;19.038;2023-04-01T04:56:17;4.70;;;3.20;;
77518;SDS011;66629;47.346;19.038;2023-04-01T04:58:43;5.95;;;3.58;;
77518;SDS011;66629;47.346;19.038;2023-04-01T05:01:09;5.65;;;3.42;;
77518;SDS011;66629;47.346;19.038;2023-04-01T05:03:37;5.20;;;3.67;;
77518;SDS011;66629;47.346;19.038;2023-04-01T05:06:03;5.57;;;3.63;;
77518;SDS011;66629;47.346;19.038;2023-04-01T05:08:29;8.10;;;3.55;;
77518;SDS011;66629;47.346;19.038;2023-04-01T05:10:54;4.88;;;3.35;;
77518;SDS011;66629;47.346;19.038;2023-04-01T05:13:20;5.13;;;3.47;;
77518;SDS011;66629;47.346;19.038;2023-04-01T05:15:45;5.20;;;3.88;;
77518;SDS011;66629;47.346;19.038;2023-04-01T05:18:11;5.43;;;3.60;;
77518;SDS011;66629;47.346;19.038;2023-04-01T05:20:36;6.63;;;3.63;;
77518;SDS011;66629;47.346;19.038;2023-04-01T05:23:02;5.85;;;4.22;;
77518;SDS011;66629;47.346;19.038;2023-04-01T05:25:27;4.90;;;3.75;;
77518;SDS011;66629;47.346;19.038;2023-04-01T05:27:53;7.72;;;3.88;;
77518;SDS011;66629;47.346;19.038;2023-04-01T05:30:18;4.43;;;3.20;;
77518;SDS011;66629;47.346;19.038;2023-04-01T05:32:44;5.90;;;3.38;;
77518;SDS011;66629;47.346;19.038;2023-04-01T05:35:10;5.97;;;2.97;;
77518;SDS011;66629;47.346;19.038;2023-04-01T05:37:36;4.22;;;3.08;;
77518;SDS011;66629;47.346;19.038;2023-04-01T05:40:02;4.47;;;2.92;;
77518;SDS011;66629;47.346;19.038;2023-04-01T05:42:28;5.72;;;2.80;;
77518;SDS011;66629;47.346;19.038;2023-04-01T05:44:53;5.18;;;2.67;;
77518;SDS011;66629;47.346;19.038;2023-04-01T05:47:20;4.28;;;2.50;;
77518;SDS011;66629;47.346;19.038;2023-04-01T05:49:46;3.08;;;2.10;;
77518;SDS011;66629;47.346;19.038;2023-04-01T05:52:11;4.70;;;2.13;;
77518;SDS011;66629;47.346;19.038;2023-04-01T05:54:37;3.10;;;2.10;;
77518;SDS011;66629;47.346;19.038;2023-04-01T05:57:02;4.72;;;2.00;;
77518;SDS011;66629;47.346;19.038;2023-04-01T05:59:28;5.30;;;2.22;;
77518;SDS011;66629;47.346;19.038;2023-04-01T06:01:53;3.85;;;2.00;;
77518;SDS011;66629;47.346;19.038;2023-04-01T06:04:19;3.28;;;2.03;;
77518;SDS011;66629;47.346;19.038;2023-04-01T06:06:45;3.47;;;2.00;;
77518;SDS011;66629;47.346;19.038;2023-04-01T06:09:12;5.53;;;2.08;;
77518;SDS011;66629;47.346;19.038;2023-04-01T06:11:46;4.30;;;2.00;;
77518;SDS011;66629;47.346;19.038;2023-04-01T06:14:39;4.43;;;2.10;;
77518;SDS011;66629;47.346;19.038;2023-04-01T06:23:20;5.68;;;2.20;;
77518;SDS011;66629;47.346;19.038;2023-04-01T06:34:24;4.40;;;2.28;;
77518;SDS011;66629;47.346;19.038;2023-04-01T06:42:55;3.95;;;2.17;;
77518;SDS011;66629;47.346;19.038;2023-04-01T06:45:56;4.07;;;2.30;;
77518;SDS011;66629;47.346;19.038;2023-04-01T06:51:20;3.30;;;2.20;;
77518;SDS011;66629;47.346;19.038;2023-04-01T06:56:28;5.55;;;2.03;;
77518;SDS011;66629;47.346;19.038;2023-04-01T07:01:41;5.30;;;2.88;;
77518;SDS011;66629;47.346;19.038;2023-04-01T07:04:53;3.25;;;2.13;;
77518;SDS011;66629;47.346;19.038;2023-04-01T07:07:04;5.00;;;2.42;;
77518;SDS011;66629;47.346;19.038;2023-04-01T07:09:38;6.72;;;2.58;;
77518;SDS011;66629;47.346;19.038;2023-04-01T07:12:49;5.82;;;2.45;;
77518;SDS011;66629;47.346;19.038;2023-04-01T07:15:14;4.25;;;1.90;;
77518;SDS011;66629;47.346;19.038;2023-04-01T07:17:58;4.20;;;2.10;;
77518;SDS011;66629;47.346;19.038;2023-04-01T07:20:32;8.43;;;2.08;;
77518;SDS011;66629;47.346;19.038;2023-04-01T07:23:04;3.03;;;1.98;;
77518;SDS011;66629;47.346;19.038;2023-04-01T07:25:39;4.93;;;2.33;;
77518;SDS011;66629;47.346;19.038;2023-04-01T07:28:13;3.13;;;1.90;;
77518;SDS011;66629;47.346;19.038;2023-04-01T07:33:39;3.15;;;2.28;;
77518;SDS011;66629;47.346;19.038;2023-04-01T07:36:10;4.35;;;2.00;;
77518;SDS011;66629;47.346;19.038;2023-04-01T07:38:58;4.47;;;2.10;;
77518;SDS011;66629;47.346;19.038;2023-04-01T07:55:42;3.03;;;1.67;;
77518;SDS011;66629;47.346;19.038;2023-04-01T08:01:23;4.85;;;1.88;;
77518;SDS011;66629;47.346;19.038;2023-04-01T08:12:08;6.22;;;3.00;;
77518;SDS011;66629;47.346;19.038;2023-04-01T08:20:53;3.05;;;1.50;;
77518;SDS011;66629;47.346;19.038;2023-04-01T08:23:27;1.98;;;1.38;;
77518;SDS011;66629;47.346;19.038;2023-04-01T08:28:32;3.05;;;1.30;;
77518;SDS011;66629;47.346;19.038;2023-04-01T08:33:33;6.22;;;2.85;;
77518;SDS011;66629;47.346;19.038;2023-04-01T08:36:01;1.75;;;1.15;;
77518;SDS011;66629;47.346;19.038;2023-04-01T08:44:19;2.78;;;1.55;;
77518;SDS011;66629;47.346;19.038;2023-04-01T08:46:55;2.63;;;1.30;;
77518;SDS011;66629;47.346;19.038;2023-04-01T08:52:37;2.67;;;1.58;;
77518;SDS011;66629;47.346;19.038;2023-04-01T08:58:11;3.45;;;1.45;;
77518;SDS011;66629;47.346;19.038;2023-04-01T09:00:55;2.03;;;1.40;;
77518;SDS011;66629;47.346;19.038;2023-04-01T09:17:51;2.47;;;1.30;;
77518;SDS011;66629;47.346;19.038;2023-04-01T09:28:45;2.45;;;1.50;;
77518;SDS011;66629;47.346;19.038;2023-04-01T09:38:51;3.45;;;1.90;;
77518;SDS011;66629;47.346;19.038;2023-04-01T09:52:43;4.28;;;1.70;;
77518;SDS011;66629;47.346;19.038;2023-04-01T10:00:39;4.25;;;1.75;;
77518;SDS011;66629;47.346;19.038;2023-04-01T10:12:36;3.40;;;1.70;;
77518;SDS011;66629;47.346;19.038;2023-04-01T10:23:34;3.22;;;1.65;;
77518;SDS011;66629;47.346;19.038;2023-04-01T10:34:48;3.47;;;1.70;;
77518;SDS011;66629;47.346;19.038;2023-04-01T10:56:55;4.43;;;1.30;;
77518;SDS011;66629;47.346;19.038;2023-04-01T11:04:56;3.60;;;1.35;;
77518;SDS011;66629;47.346;19.038;2023-04-01T11:31:46;4.18;;;1.63;;
77518;SDS011;66629;47.346;19.038;2023-04-01T11:37:12;4.68;;;1.35;;
77518;SDS011;66629;47.346;19.038;2023-04-01T11:42:54;3.78;;;1.60;;
77518;SDS011;66629;47.346;19.038;2023-04-01T11:45:46;3.97;;;1.30;;
77518;SDS011;66629;47.346;19.038;2023-04-01T11:51:16;3.03;;;1.45;;
77518;SDS011;66629;47.346;19.038;2023-04-01T11:56:39;3.38;;;1.73;;
77518;SDS011;66629;47.346;19.038;2023-04-01T12:05:43;4.30;;;1.92;;
77518;SDS011;66629;47.346;19.038;2023-04-01T12:08:51;1.85;;;1.48;;
77518;SDS011;66629;47.346;19.038;2023-04-01T12:13:45;3.65;;;1.38;;
77518;SDS011;66629;47.346;19.038;2023-04-01T12:16:21;5.78;;;1.50;;
77518;SDS011;66629;47.346;19.038;2023-04-01T12:21:49;8.02;;;1.90;;
77518;SDS011;66629;47.346;19.038;2023-04-01T12:24:40;3.20;;;1.73;;
77518;SDS011;66629;47.346;19.038;2023-04-01T12:43:58;4.38;;;1.25;;
77518;SDS011;66629;47.346;19.038;2023-04-01T12:55:14;4.57;;;1.30;;
77518;SDS011;66629;47.346;19.038;2023-04-01T12:57:55;3.03;;;1.40;;
77518;SDS011;66629;47.346;19.038;2023-04-01T13:25:31;5.32;;;1.42;;
77518;SDS011;66629;47.346;19.038;2023-04-01T13:31:01;4.03;;;2.20;;
77518;SDS011;66629;47.346;19.038;2023-04-01T13:50:34;3.03;;;1.48;;
77518;SDS011;66629;47.346;19.038;2023-04-01T14:04:32;3.50;;;1.70;;
77518;SDS011;66629;47.346;19.038;2023-04-01T14:12:09;2.22;;;1.58;;
77518;SDS011;66629;47.346;19.038;2023-04-01T14:41:02;2.78;;;1.75;;
77518;SDS011;66629;47.346;19.038;2023-04-01T14:43:44;4.47;;;2.38;;
77518;SDS011;66629;47.346;19.038;2023-04-01T14:49:15;5.10;;;2.55;;
77518;SDS011;66629;47.346;19.038;2023-04-01T14:51:44;5.13;;;2.10;;
77518;SDS011;66629;47.346;19.038;2023-04-01T14:56:37;4.85;;;2.67;;
77518;SDS011;66629;47.346;19.038;2023-04-01T14:59:15;6.45;;;3.58;;
77518;SDS011;66629;47.346;19.038;2023-04-01T15:42:43;3.58;;;2.20;;
77518;SDS011;66629;47.346;19.038;2023-04-01T15:48:28;3.28;;;1.90;;
77518;SDS011;66629;47.346;19.038;2023-04-01T15:51:14;3.47;;;2.13;;
77518;SDS011;66629;47.346;19.038;2023-04-01T16:01:31;4.18;;;1.90;;
77518;SDS011;66629;47.346;19.038;2023-04-01T16:14:47;3.80;;;2.10;;
77518;SDS011;66629;47.346;19.038;2023-04-01T16:22:52;2.72;;;1.70;;
77518;SDS011;66629;47.346;19.038;2023-04-01T16:25:32;3.35;;;2.55;;
77518;SDS011;66629;47.346;19.038;2023-04-01T16:28:18;2.15;;;1.65;;
77518;SDS011;66629;47.346;19.038;2023-04-01T16:34:04;1.75;;;1.42;;
77518;SDS011;66629;47.346;19.038;2023-04-01T16:36:42;1.33;;;1.25;;
77518;SDS011;66629;47.346;19.038;2023-04-01T16:41:42;4.53;;;1.60;;
77518;SDS011;66629;47.346;19.038;2023-04-01T16:44:24;1.90;;;1.30;;
77518;SDS011;66629;47.346;19.038;2023-04-01T16:46:51;4.45;;;2.55;;
77518;SDS011;66629;47.346;19.038;2023-04-01T16:52:17;2.58;;;1.80;;
77518;SDS011;66629;47.346;19.038;2023-04-01T16:55:04;2.80;;;1.73;;
77518;SDS011;66629;47.346;19.038;2023-04-01T16:57:50;2.35;;;1.50;;
77518;SDS011;66629;47.346;19.038;2023-04-01T17:05:52;4.80;;;1.85;;
77518;SDS011;66629;47.346;19.038;2023-04-01T17:11:03;2.17;;;1.80;;
77518;SDS011;66629;47.346;19.038;2023-04-01T17:13:46;3.97;;;2.40;;
77518;SDS011;66629;47.346;19.038;2023-04-01T17:27:22;13.07;;;6.97;;
77518;SDS011;66629;47.346;19.038;2023-04-01T17:32:39;15.93;;;10.77;;
77518;SDS011;66629;47.346;19.038;2023-04-01T17:40:58;17.15;;;11.05;;
77518;SDS011;66629;47.346;19.038;2023-04-01T17:52:30;18.23;;;9.95;;
77518;SDS011;66629;47.346;19.038;2023-04-01T17:57:54;20.27;;;12.00;;
77518;SDS011;66629;47.346;19.038;2023-04-01T18:00:46;20.50;;;11.35;;
77518;SDS011;66629;47.346;19.038;2023-04-01T18:21:48;11.00;;;6.43;;
77518;SDS011;66629;47.346;19.038;2023-04-01T18:24:28;10.38;;;6.47;;
77518;SDS011;66629;47.346;19.038;2023-04-01T18:27:03;12.27;;;8.07;;
77518;SDS011;66629;47.346;19.038;2023-04-01T18:29:36;13.93;;;8.18;;
77518;SDS011;66629;47.346;19.038;2023-04-01T18:32:17;12.88;;;8.23;;
77518;SDS011;66629;47.346;19.038;2023-04-01T18:37:45;18.58;;;11.20;;
77518;SDS011;66629;47.346;19.038;2023-04-01T18:40:19;24.27;;;13.20;;
77518;SDS011;66629;47.346;19.038;2023-04-01T18:53:55;13.23;;;8.60;;
77518;SDS011;66629;47.346;19.038;2023-04-01T18:56:26;14.68;;;8.60;;
77518;SDS011;66629;47.346;19.038;2023-04-01T19:04:50;13.50;;;8.15;;
77518;SDS011;66629;47.346;19.038;2023-04-01T19:13:26;17.08;;;10.20;;
77518;SDS011;66629;47.346;19.038;2023-04-01T19:22:00;20.60;;;12.15;;
77518;SDS011;66629;47.346;19.038;2023-04-01T19:37:54;29.30;;;14.88;;
77518;SDS011;66629;47.346;19.038;2023-04-01T19:40:41;24.08;;;14.18;;
77518;SDS011;66629;47.346;19.038;2023-04-01T19:45:46;25.85;;;16.55;;
77518;SDS011;66629;47.346;19.038;2023-04-01T19:51:03;28.15;;;16.55;;
77518;SDS011;66629;47.346;19.038;2023-04-01T19:54:13;26.60;;;17.23;;
77518;SDS011;66629;47.346;19.038;2023-04-01T19:57:33;25.23;;;15.45;;
77518;SDS011;66629;47.346;19.038;2023-04-01T19:59:31;21.52;;;13.45;;
77518;SDS011;66629;47.346;19.038;2023-04-01T20:04:34;16.10;;;11.35;;
77518;SDS011;66629;47.346;19.038;2023-04-01T20:07:14;16.53;;;10.17;;
77518;SDS011;66629;47.346;19.038;2023-04-01T20:09:49;15.32;;;9.20;;
77518;SDS011;66629;47.346;19.038;2023-04-01T20:13:05;15.77;;;10.38;;
77518;SDS011;66629;47.346;19.038;2023-04-01T20:17:58;13.88;;;8.65;;
77518;SDS011;66629;47.346;19.038;2023-04-01T20:20:27;15.25;;;9.55;;
77518;SDS011;66629;47.346;19.038;2023-04-01T20:22:56;13.25;;;9.25;;
77518;SDS011;66629;47.346;19.038;2023-04-01T20:33:31;12.18;;;7.38;;
77518;SDS011;66629;47.346;19.038;2023-04-01T20:41:32;11.75;;;7.82;;
77518;SDS011;66629;47.346;19.038;2023-04-01T20:44:18;14.85;;;8.65;;
77518;SDS011;66629;47.346;19.038;2023-04-01T20:46:53;14.70;;;8.15;;
77518;SDS011;66629;47.346;19.038;2023-04-01T20:49:31;13.05;;;8.77;;
77518;SDS011;66629;47.346;19.038;2023-04-01T20:57:21;13.00;;;8.45;;
77518;SDS011;66629;47.346;19.038;2023-04-01T21:08:40;11.27;;;5.85;;
77518;SDS011;66629;47.346;19.038;2023-04-01T21:17:45;7.93;;;4.70;;
77518;SDS011;66629;47.346;19.038;2023-04-01T21:28:18;9.00;;;4.70;;
77518;SDS011;66629;47.346;19.038;2023-04-01T21:44:52;7.95;;;4.50;;
77518;SDS011;66629;47.346;19.038;2023-04-01T21:47:24;7.00;;;4.45;;
77518;SDS011;66629;47.346;19.038;2023-04-01T21:52:42;8.98;;;4.40;;
77518;SDS011;66629;47.346;19.038;2023-04-01T22:06:52;7.43;;;4.25;;
77518;SDS011;66629;47.346;19.038;2023-04-01T22:10:30;6.07;;;4.05;;
77518;SDS011;66629;47.346;19.038;2023-04-01T22:15:00;7.07;;;3.97;;
77518;SDS011;66629;47.346;19.038;2023-04-01T22:20:31;6.43;;;3.80;;
77518;SDS011;66629;47.346;19.038;2023-04-01T22:25:51;7.93;;;3.92;;
77518;SDS011;66629;47.346;19.038;2023-04-01T22:28:34;7.78;;;4.10;;
77518;SDS011;66629;47.346;19.038;2023-04-01T22:31:06;7.93;;;4.07;;
77518;SDS011;66629;47.346;19.038;2023-04-01T22:33:57;8.48;;;4.35;;
77518;SDS011;66629;47.346;19.038;2023-04-01T22:45:10;6.57;;;3.15;;
77518;SDS011;66629;47.346;19.038;2023-04-01T22:51:20;4.00;;;2.40;;
77518;SDS011;66629;47.346;19.038;2023-04-01T22:56:30;2.15;;;1.70;;
77518;SDS011;66629;47.346;19.038;2023-04-01T23:02:11;3.50;;;2.13;;
77518;SDS011;66629;47.346;19.038;2023-04-01T23:04:45;5.88;;;2.85;;
77518;SDS011;66629;47.346;19.038;2023-04-01T23:09:48;6.60;;;3.20;;
77518;SDS011;66629;47.346;19.038;2023-04-01T23:12:14;6.28;;;3.90;;
77518;SDS011;66629;47.346;19.038;2023-04-01T23:14:48;5.53;;;3.03;;
77518;SDS011;66629;47.346;19.038;2023-04-01T23:19:54;4.63;;;3.00;;
77518;SDS011;66629;47.346;19.038;2023-04-01T23:33:11;4.13;;;2.10;;
77518;SDS011;66629;47.346;19.038;2023-04-01T23:35:49;3.70;;;2.20;;
77518;SDS011;66629;47.346;19.038;2023-04-01T23:38:16;4.05;;;2.28;;
77518;SDS011;66629;47.346;19.038;2023-04-01T23:40:43;4.88;;;2.50;;
77518;SDS011;66629;47.346;19.038;2023-04-01T23:43:18;4.05;;;2.42;;
77518;SDS011;66629;47.346;19.038;2023-04-01T23:45:58;4.88;;;2.47;;
77518;SDS011;66629;47.346;19.038;2023-04-01T23:48:30;5.30;;;2.50;;
77518;SDS011;66629;47.346;19.038;2023-04-01T23:51:10;4.93;;;2.20;;
77518;SDS011;66629;47.346;19.038;2023-04-01T23:53:41;3.35;;;2.28;;
77518;SDS011;66629;47.346;19.038;2023-04-01T23:56:10;3.10;;;1.98;;
77518;SDS011;66629;47.346;19.038;2023-04-01T23:58:41;3.72;;;2.30;;
